createdAt,value
2018-09-21T00:00:01.279Z,43.34
2018-09-21T00:02:28.973Z,43.34
2018-09-21T00:04:56.652Z,43.13
2018-09-21T00:07:24.318Z,43.38
2018-09-21T00:09:51.959Z,43.41
2018-09-21T00:12:19.928Z,43.19
2018-09-21T00:14:47.594Z,43.37
2018-09-21T00:17:15.277Z,43.78
2018-09-21T00:19:43.013Z,43.61
2018-09-21T00:22:10.670Z,43.91
2018-09-21T00:24:38.350Z,43.92
2018-09-21T00:27:06.145Z,43.98
2018-09-21T00:29:33.841Z,43.75
2018-09-21T00:32:01.529Z,44.29
2018-09-21T00:34:29.226Z,44.38
2018-09-21T00:36:56.925Z,44.37
2018-09-21T00:39:24.574Z,44.44
2018-09-21T00:41:52.279Z,44.06
2018-09-21T00:44:20.047Z,44.55
2018-09-21T00:46:47.765Z,44.29
2018-09-21T00:49:15.527Z,44.19
2018-09-21T00:51:43.201Z,44.56
2018-09-21T00:54:11.003Z,44.76
2018-09-21T00:56:38.773Z,44.64
2018-09-21T00:59:06.543Z,44.34
2018-09-21T01:01:34.210Z,44.71
2018-09-21T01:04:01.931Z,44.71
2018-09-21T01:06:29.777Z,44.79
2018-09-21T01:08:57.529Z,44.73
2018-09-21T01:11:25.229Z,44.48
2018-09-21T01:13:52.886Z,44.48
2018-09-21T01:16:20.585Z,44.78
2018-09-21T01:18:48.277Z,44.26
2018-09-21T01:21:16.072Z,44.61
2018-09-21T01:23:43.808Z,44.65
2018-09-21T01:26:11.636Z,44.59
2018-09-21T01:28:39.286Z,44.40
2018-09-21T01:31:06.997Z,44.48
2018-09-21T01:33:34.697Z,44.24
2018-09-21T01:36:02.419Z,43.99
2018-09-21T01:38:30.179Z,44.66
2018-09-21T01:40:57.834Z,44.41
2018-09-21T01:43:25.498Z,44.78
2018-09-21T01:45:53.196Z,44.85
2018-09-21T01:48:20.867Z,44.50
2018-09-21T01:50:48.542Z,44.91
2018-09-21T01:53:16.244Z,45.15
2018-09-21T01:55:43.908Z,44.88
2018-09-21T01:58:11.578Z,44.80
2018-09-21T02:00:39.306Z,44.59
2018-09-21T02:03:07.142Z,44.79
2018-09-21T02:05:34.797Z,45.12
2018-09-21T02:08:02.462Z,45.05
2018-09-21T02:10:30.172Z,44.89
2018-09-21T02:12:57.849Z,45.03
2018-09-21T02:15:25.495Z,45.48
2018-09-21T02:17:53.305Z,44.99
2018-09-21T02:20:20.953Z,45.03
2018-09-21T02:22:48.709Z,44.89
2018-09-21T02:25:16.375Z,45.17
2018-09-21T02:27:44.022Z,45.68
2018-09-21T02:30:11.724Z,45.43
2018-09-21T02:32:39.410Z,45.13
2018-09-21T02:35:07.107Z,45.10
2018-09-21T02:37:34.797Z,45.27
2018-09-21T02:40:02.533Z,45.12
2018-09-21T02:42:30.266Z,45.24
2018-09-21T02:44:57.996Z,44.96
2018-09-21T02:47:25.684Z,44.88
2018-09-21T02:49:53.372Z,45.32
2018-09-21T02:52:21.040Z,45.37
2018-09-21T02:54:48.730Z,45.29
2018-09-21T02:57:16.429Z,45.48
2018-09-21T02:59:44.094Z,45.82
2018-09-21T03:02:11.818Z,45.32
2018-09-21T03:04:45.351Z,45.46
2018-09-21T03:07:12.998Z,45.67
2018-09-21T03:09:40.685Z,45.54
2018-09-21T03:12:08.389Z,45.68
2018-09-21T03:14:36.120Z,45.56
2018-09-21T03:17:03.790Z,45.88
2018-09-21T03:19:31.458Z,45.45
2018-09-21T03:21:59.212Z,45.74
2018-09-21T03:24:26.879Z,45.94
2018-09-21T03:26:54.530Z,45.65
2018-09-21T03:29:22.229Z,45.48
2018-09-21T03:31:49.885Z,45.83
2018-09-21T03:34:17.550Z,45.85
2018-09-21T03:36:45.224Z,45.90
2018-09-21T03:39:12.929Z,46.07
2018-09-21T03:41:40.604Z,46.50
2018-09-21T03:44:08.296Z,46.25
2018-09-21T03:46:36.065Z,46.30
2018-09-21T03:49:03.859Z,46.64
2018-09-21T03:51:31.540Z,46.51
2018-09-21T03:53:59.190Z,47.00
2018-09-21T03:56:26.970Z,47.78
2018-09-21T03:58:54.792Z,47.56
2018-09-21T04:01:22.509Z,48.83
2018-09-21T04:03:50.206Z,49.36
2018-09-21T04:06:17.895Z,49.80
2018-09-21T04:08:45.603Z,49.37
2018-09-21T04:11:13.290Z,49.98
2018-09-21T04:13:40.970Z,49.58
2018-09-21T04:16:09.214Z,49.61
2018-09-21T04:18:37.142Z,50.01
2018-09-21T04:21:05.322Z,49.70
2018-09-21T04:23:33.165Z,49.59
2018-09-21T04:26:01.037Z,49.61
2018-09-21T04:28:28.927Z,49.62
2018-09-21T04:30:56.773Z,49.42
2018-09-21T04:33:24.940Z,48.75
2018-09-21T04:35:52.948Z,48.69
2018-09-21T04:38:20.886Z,47.98
2018-09-21T04:40:48.834Z,47.94
2018-09-21T04:43:16.655Z,47.72
2018-09-21T04:45:44.591Z,47.33
2018-09-21T04:48:12.475Z,47.17
2018-09-21T04:50:40.490Z,47.33
2018-09-21T04:53:08.618Z,46.81
2018-09-21T04:55:36.306Z,46.69
2018-09-21T04:58:04.077Z,46.28
2018-09-21T05:00:31.797Z,46.47
2018-09-21T05:02:59.590Z,46.28
2018-09-21T05:05:27.385Z,45.72
2018-09-21T05:07:55.532Z,45.46
2018-09-21T05:10:23.494Z,45.78
2018-09-21T05:12:51.288Z,45.12
2018-09-21T05:15:19.371Z,45.16
2018-09-21T05:17:47.340Z,44.38
2018-09-21T05:20:15.274Z,44.22
2018-09-21T05:22:43.286Z,43.78
2018-09-21T05:25:11.440Z,43.56
2018-09-21T05:27:39.341Z,43.31
2018-09-21T05:30:07.485Z,43.05
2018-09-21T05:32:35.458Z,43.12
2018-09-21T05:35:03.712Z,43.02
2018-09-21T05:37:31.798Z,42.78
2018-09-21T05:39:59.709Z,42.26
2018-09-21T05:42:27.419Z,42.04
2018-09-21T05:44:55.573Z,42.27
2018-09-21T05:47:23.385Z,41.84
2018-09-21T05:49:51.235Z,41.21
2018-09-21T05:52:19.144Z,41.42
2018-09-21T05:54:47.077Z,40.83
2018-09-21T05:57:15.189Z,40.57
2018-09-21T05:59:42.919Z,39.53
2018-09-21T06:02:10.800Z,39.74
2018-09-21T06:04:38.489Z,39.33
2018-09-21T06:07:06.260Z,38.61
2018-09-21T06:09:33.982Z,38.22
2018-09-21T06:12:01.729Z,38.04
2018-09-21T06:14:29.425Z,37.82
2018-09-21T06:16:57.228Z,37.51
2018-09-21T06:19:25.069Z,37.31
2018-09-21T06:21:52.841Z,37.14
2018-09-21T06:24:20.590Z,37.05
2018-09-21T06:26:48.400Z,36.44
2018-09-21T06:29:16.169Z,35.98
2018-09-21T06:31:43.893Z,35.82
2018-09-21T06:34:11.716Z,35.79
2018-09-21T06:36:39.432Z,34.94
2018-09-21T06:39:09.525Z,34.89
2018-09-21T06:41:37.636Z,34.98
2018-09-21T06:44:05.718Z,34.51
2018-09-21T06:46:33.538Z,33.88
2018-09-21T06:49:01.261Z,34.07
2018-09-21T06:51:29.073Z,34.12
2018-09-21T06:53:56.865Z,33.89
2018-09-21T06:56:24.543Z,33.18
2018-09-21T06:58:52.206Z,33.01
2018-09-21T07:01:19.969Z,33.01
2018-09-21T07:03:47.734Z,33.45
2018-09-21T07:06:15.427Z,33.27
2018-09-21T07:08:43.242Z,32.99
2018-09-21T07:11:10.997Z,32.96
2018-09-21T07:13:38.738Z,33.30
2018-09-21T07:16:06.526Z,32.44
2018-09-21T07:18:34.305Z,32.50
2018-09-21T07:21:02.051Z,32.30
2018-09-21T07:23:29.867Z,31.84
2018-09-21T07:25:57.633Z,31.43
2018-09-21T07:28:25.355Z,30.97
2018-09-21T07:30:53.159Z,30.73
2018-09-21T07:33:20.860Z,30.59
2018-09-21T07:35:48.606Z,29.97
2018-09-21T07:38:16.349Z,29.54
2018-09-21T07:40:44.106Z,29.48
2018-09-21T07:43:11.851Z,28.98
2018-09-21T07:45:39.636Z,29.01
2018-09-21T07:48:07.432Z,28.67
2018-09-21T07:50:35.199Z,28.10
2018-09-21T07:53:02.961Z,27.94
2018-09-21T07:55:30.793Z,26.32
2018-09-21T07:57:58.567Z,25.71
2018-09-21T08:00:26.338Z,24.84
2018-09-21T08:02:54.263Z,25.12
2018-09-21T08:05:37.817Z,24.27
2018-09-21T08:08:06.307Z,24.98
2018-09-21T08:10:34.414Z,24.22
2018-09-21T08:13:02.443Z,23.39
2018-09-21T08:15:30.786Z,22.32
2018-09-21T08:17:58.543Z,21.39
2018-09-21T08:20:26.720Z,21.16
2018-09-21T08:22:54.509Z,20.96
2018-09-21T08:25:22.226Z,20.57
2018-09-21T08:27:49.961Z,21.39
2018-09-21T08:30:17.817Z,21.47
2018-09-21T08:32:45.581Z,21.03
2018-09-21T08:35:13.358Z,21.99
2018-09-21T08:37:41.315Z,22.76
2018-09-21T08:40:09.787Z,22.26
2018-09-21T08:42:37.725Z,21.90
2018-09-21T08:45:06.630Z,22.36
2018-09-21T08:47:34.457Z,21.95
2018-09-21T08:50:02.258Z,22.64
2018-09-21T08:52:30.022Z,21.88
2018-09-21T08:54:57.774Z,21.71
2018-09-21T08:57:25.504Z,22.91
2018-09-21T08:59:53.190Z,23.31
2018-09-21T09:02:20.968Z,23.48
2018-09-21T09:04:48.689Z,23.40
2018-09-21T09:07:16.545Z,22.00
2018-09-21T09:09:44.246Z,21.03
2018-09-21T09:12:12.101Z,20.87
2018-09-21T09:14:39.814Z,20.71
2018-09-21T09:17:07.513Z,19.84
2018-09-21T09:19:35.323Z,20.52
2018-09-21T09:22:03.096Z,20.39
2018-09-21T09:24:30.938Z,20.92
2018-09-21T09:26:58.587Z,21.22
2018-09-21T09:29:26.280Z,21.52
2018-09-21T09:31:54.112Z,20.88
2018-09-21T09:34:21.920Z,21.39
2018-09-21T09:36:49.668Z,20.99
2018-09-21T09:39:17.362Z,21.39
2018-09-21T09:41:45.124Z,21.77
2018-09-21T09:44:13.249Z,21.94
2018-09-21T09:46:41.008Z,21.78
2018-09-21T09:49:08.775Z,20.85
2018-09-21T09:51:36.473Z,23.41
2018-09-21T09:54:04.265Z,23.63
2018-09-21T09:56:32.071Z,24.21
2018-09-21T09:58:59.860Z,23.43
2018-09-21T10:01:27.536Z,23.14
2018-09-21T10:03:55.411Z,23.60
2018-09-21T10:06:23.119Z,22.54
2018-09-21T10:08:50.944Z,22.93
2018-09-21T10:11:18.651Z,22.68
2018-09-21T10:13:46.409Z,23.64
2018-09-21T10:16:14.194Z,23.76
2018-09-21T10:18:41.990Z,24.58
2018-09-21T10:21:09.760Z,24.60
2018-09-21T10:23:37.501Z,24.97
2018-09-21T10:26:05.254Z,25.50
2018-09-21T10:28:33.384Z,26.14
2018-09-21T10:31:00.861Z,26.44
2018-09-21T10:33:28.674Z,26.40
2018-09-21T10:35:56.496Z,25.40
2018-09-21T10:38:24.171Z,24.93
2018-09-21T10:40:51.870Z,24.67
2018-09-21T10:43:19.676Z,24.62
2018-09-21T10:45:47.405Z,24.05
2018-09-21T10:48:15.170Z,24.80
2018-09-21T10:50:43.178Z,25.00
2018-09-21T10:53:10.959Z,25.30
2018-09-21T10:55:38.717Z,24.48
2018-09-21T10:58:06.444Z,22.96
2018-09-21T11:00:34.299Z,22.17
2018-09-21T11:03:02.021Z,22.34
2018-09-21T11:05:29.819Z,22.41
2018-09-21T11:07:57.521Z,22.01
2018-09-21T11:10:25.224Z,22.67
2018-09-21T11:12:53.006Z,22.36
2018-09-21T11:15:20.719Z,22.40
2018-09-21T11:17:48.507Z,23.50
2018-09-21T11:20:16.240Z,23.69
2018-09-21T11:22:44.028Z,22.41
2018-09-21T11:25:11.823Z,20.80
2018-09-21T11:27:39.588Z,18.92
2018-09-21T11:30:07.379Z,19.71
2018-09-21T11:32:35.189Z,21.99
2018-09-21T11:35:02.970Z,23.48
2018-09-21T11:37:30.886Z,24.49
2018-09-21T11:39:58.642Z,24.59
2018-09-21T11:42:32.268Z,24.03
2018-09-21T11:45:00.156Z,24.46
2018-09-21T11:47:28.065Z,25.34
2018-09-21T11:49:56.023Z,25.92
2018-09-21T11:52:24.060Z,26.09
2018-09-21T11:54:51.932Z,26.74
2018-09-21T11:57:19.965Z,26.35
2018-09-21T11:59:48.186Z,26.31
2018-09-21T12:02:16.257Z,25.34
2018-09-21T12:04:44.367Z,24.79
2018-09-21T12:07:12.208Z,24.28
2018-09-21T12:09:40.200Z,24.91
2018-09-21T12:12:08.202Z,25.26
2018-09-21T12:14:36.127Z,24.80
2018-09-21T12:17:04.032Z,24.99
2018-09-21T12:19:32.177Z,25.86
2018-09-21T12:22:00.374Z,26.66
2018-09-21T12:24:28.535Z,26.26
2018-09-21T12:26:56.244Z,26.59
2018-09-21T12:29:23.949Z,27.62
2018-09-21T12:31:51.626Z,27.51
2018-09-21T12:34:19.488Z,26.97
2018-09-21T12:36:47.382Z,25.34
2018-09-21T12:39:15.208Z,24.68
2018-09-21T12:41:43.413Z,25.80
2018-09-21T12:44:12.679Z,27.04
2018-09-21T12:46:40.382Z,26.84
2018-09-21T12:49:08.215Z,26.57
2018-09-21T12:51:36.066Z,27.70
2018-09-21T12:54:03.908Z,28.36
2018-09-21T12:56:31.838Z,28.67
2018-09-21T12:58:59.546Z,28.90
2018-09-21T13:01:27.301Z,29.02
2018-09-21T13:03:55.054Z,29.31
2018-09-21T13:06:22.897Z,29.13
2018-09-21T13:08:50.636Z,29.53
2018-09-21T13:11:18.431Z,29.38
2018-09-21T13:13:46.389Z,29.89
2018-09-21T13:16:14.098Z,29.93
2018-09-21T13:18:41.917Z,30.22
2018-09-21T13:21:09.672Z,30.51
2018-09-21T13:23:37.446Z,30.17
2018-09-21T13:26:05.195Z,30.59
2018-09-21T13:28:32.996Z,30.91
2018-09-21T13:31:00.729Z,30.75
2018-09-21T13:33:28.479Z,30.62
2018-09-21T13:35:56.414Z,30.58
2018-09-21T13:38:24.425Z,30.51
2018-09-21T13:40:52.725Z,30.82
2018-09-21T13:43:20.849Z,30.38
2018-09-21T13:45:48.693Z,30.79
2018-09-21T13:48:16.637Z,30.03
2018-09-21T13:50:44.919Z,30.80
2018-09-21T13:53:12.905Z,31.11
2018-09-21T13:55:40.941Z,31.07
2018-09-21T13:58:09.089Z,31.15
2018-09-21T14:00:37.008Z,30.66
2018-09-21T14:03:05.017Z,30.78
2018-09-21T14:05:33.335Z,31.04
2018-09-21T14:08:01.312Z,31.27
2018-09-21T14:10:29.279Z,29.69
2018-09-21T14:12:57.001Z,29.48
2018-09-21T14:15:24.920Z,30.01
2018-09-21T14:17:52.697Z,30.00
2018-09-21T14:20:20.598Z,30.36
2018-09-21T14:22:48.681Z,30.93
2018-09-21T14:25:16.418Z,31.16
2018-09-21T14:27:44.272Z,31.68
2018-09-21T14:30:11.955Z,31.46
2018-09-21T14:32:39.678Z,31.60
2018-09-21T14:35:07.381Z,32.11
2018-09-21T14:37:35.180Z,32.46
2018-09-21T14:40:02.897Z,32.56
2018-09-21T14:42:30.785Z,32.68
2018-09-21T14:44:58.505Z,33.35
2018-09-21T14:47:26.198Z,33.29
2018-09-21T14:49:53.862Z,33.29
2018-09-21T14:52:21.617Z,33.46
2018-09-21T14:54:49.299Z,33.21
2018-09-21T14:57:17.267Z,32.64
2018-09-21T14:59:45.042Z,33.77
2018-09-21T15:02:12.760Z,34.38
2018-09-21T15:04:40.513Z,34.60
2018-09-21T15:07:09.393Z,35.41
2018-09-21T15:09:37.927Z,35.31
2018-09-21T15:12:05.734Z,35.35
2018-09-21T15:14:33.455Z,35.91
2018-09-21T15:17:01.184Z,36.57
2018-09-21T15:19:28.849Z,37.10
2018-09-21T15:21:56.560Z,37.91
2018-09-21T15:24:24.421Z,38.44
2018-09-21T15:26:52.246Z,39.69
2018-09-21T15:29:19.946Z,39.79
2018-09-21T15:31:47.856Z,39.53
2018-09-21T15:34:15.939Z,38.48
2018-09-21T15:36:43.712Z,37.93
2018-09-21T15:39:12.221Z,38.20
2018-09-21T15:41:40.524Z,37.70
2018-09-21T15:44:08.396Z,38.19
2018-09-21T15:46:36.513Z,37.28
2018-09-21T15:49:04.948Z,34.27
2018-09-21T15:51:32.744Z,30.55
2018-09-21T15:54:00.422Z,29.34
2018-09-21T15:56:28.083Z,27.76
2018-09-21T15:58:55.817Z,28.10
2018-09-21T16:01:23.566Z,27.54
2018-09-21T16:03:51.320Z,27.83
2018-09-21T16:06:19.220Z,27.66
2018-09-21T16:08:46.961Z,27.58
2018-09-21T16:11:14.830Z,27.75
2018-09-21T16:13:42.752Z,28.45
2018-09-21T16:16:10.542Z,28.10
2018-09-21T16:18:38.300Z,28.69
2018-09-21T16:21:06.082Z,28.56
2018-09-21T16:23:33.799Z,29.41
2018-09-21T16:26:01.508Z,29.87
2018-09-21T16:28:30.365Z,31.44
2018-09-21T16:30:58.072Z,32.56
2018-09-21T16:33:25.710Z,40.24
2018-09-21T16:35:53.555Z,45.41
2018-09-21T16:38:21.269Z,47.50
2018-09-21T16:40:48.942Z,48.60
2018-09-21T16:43:16.681Z,49.87
2018-09-21T16:45:44.369Z,50.67
2018-09-21T16:48:12.808Z,52.44
2018-09-21T16:50:40.544Z,52.23
2018-09-21T16:53:08.254Z,52.81
2018-09-21T16:55:35.964Z,52.93
2018-09-21T16:58:03.618Z,52.85
2018-09-21T17:00:31.361Z,52.00
2018-09-21T17:02:59.036Z,51.53
2018-09-21T17:05:26.778Z,50.99
2018-09-21T17:07:54.445Z,50.94
2018-09-21T17:10:22.148Z,51.13
2018-09-21T17:12:49.829Z,50.46
2018-09-21T17:15:17.485Z,50.70
2018-09-21T17:17:45.145Z,50.59
2018-09-21T17:20:12.902Z,50.45
2018-09-21T17:22:40.536Z,50.56
2018-09-21T17:25:08.713Z,50.89
2018-09-21T17:27:36.408Z,51.21
2018-09-21T17:30:04.263Z,50.90
2018-09-21T17:32:31.938Z,50.75
2018-09-21T17:34:59.623Z,51.09
2018-09-21T17:37:27.326Z,51.44
2018-09-21T17:39:55.068Z,51.50
2018-09-21T17:42:22.782Z,52.45
2018-09-21T17:44:51.107Z,53.14
2018-09-21T17:47:19.138Z,51.52
2018-09-21T17:49:46.799Z,51.20
2018-09-21T17:52:14.786Z,51.56
2018-09-21T17:54:42.724Z,50.60
2018-09-21T17:57:10.517Z,51.63
2018-09-21T17:59:38.378Z,52.52
2018-09-21T18:02:06.259Z,52.48
2018-09-21T18:04:34.141Z,53.19
2018-09-21T18:07:01.870Z,54.20
2018-09-21T18:09:29.785Z,54.75
2018-09-21T18:11:57.468Z,54.75
2018-09-21T18:14:25.265Z,55.43
2018-09-21T18:16:52.931Z,55.59
2018-09-21T18:19:20.602Z,55.85
2018-09-21T18:21:48.354Z,55.34
2018-09-21T18:24:16.103Z,56.21
2018-09-21T18:26:43.797Z,56.88
2018-09-21T18:29:11.517Z,56.67
2018-09-21T18:31:39.286Z,57.10
2018-09-21T18:34:07.054Z,57.14
2018-09-21T18:36:34.819Z,57.73
2018-09-21T18:39:02.779Z,57.05
2018-09-21T18:41:30.537Z,57.46
2018-09-21T18:43:58.343Z,57.59
2018-09-21T18:46:26.610Z,57.56
2018-09-21T18:48:54.783Z,58.48
2018-09-21T18:51:23.152Z,59.64
2018-09-21T18:53:51.130Z,60.24
2018-09-21T18:56:18.919Z,60.63
2018-09-21T18:58:46.749Z,61.10
2018-09-21T19:01:14.461Z,60.82
2018-09-21T19:03:42.784Z,60.58
2018-09-21T19:06:10.461Z,61.48
2018-09-21T19:08:38.158Z,61.33
2018-09-21T19:11:05.948Z,60.94
2018-09-21T19:13:33.923Z,61.70
2018-09-21T19:16:01.722Z,62.19
2018-09-21T19:18:29.488Z,62.26
2018-09-21T19:20:57.240Z,62.32
2018-09-21T19:23:24.957Z,62.64
2018-09-21T19:25:52.946Z,62.10
2018-09-21T19:28:21.158Z,61.92
2018-09-21T19:30:48.941Z,61.58
2018-09-21T19:33:17.865Z,61.80
2018-09-21T19:35:45.757Z,61.58
2018-09-21T19:38:13.869Z,61.77
2018-09-21T19:40:42.288Z,62.47
2018-09-21T19:43:10.195Z,62.49
2018-09-21T19:45:37.924Z,62.40
2018-09-21T19:48:05.863Z,62.06
2018-09-21T19:50:33.629Z,62.16
2018-09-21T19:53:01.498Z,62.53
2018-09-21T19:55:29.309Z,62.63
2018-09-21T19:57:57.042Z,62.70
2018-09-21T20:00:24.920Z,62.52
2018-09-21T20:02:52.784Z,62.52
2018-09-21T20:05:20.574Z,62.49
2018-09-21T20:07:48.579Z,62.66
2018-09-21T20:10:16.420Z,62.73
2018-09-21T20:12:44.282Z,62.47
2018-09-21T20:15:12.240Z,62.34
2018-09-21T20:17:39.905Z,62.12
2018-09-21T20:20:07.637Z,62.38
2018-09-21T20:22:35.337Z,62.35
2018-09-21T20:25:03.482Z,62.76
2018-09-21T20:27:31.176Z,62.77
2018-09-21T20:30:04.447Z,61.41
2018-09-21T20:32:37.926Z,61.59
2018-09-21T20:35:06.031Z,61.20
2018-09-21T20:37:34.030Z,60.40
2018-09-21T20:40:01.838Z,60.92
2018-09-21T20:42:29.574Z,60.76
2018-09-21T20:44:57.359Z,59.81
2018-09-21T20:47:25.147Z,59.68
2018-09-21T20:49:52.878Z,59.95
2018-09-21T20:52:20.936Z,59.95
2018-09-21T20:54:48.786Z,59.68
2018-09-21T20:57:16.572Z,59.43
2018-09-21T20:59:44.302Z,59.15
2018-09-21T21:02:12.065Z,58.95
2018-09-21T21:04:40.115Z,57.99
2018-09-21T21:07:07.903Z,58.73
2018-09-21T21:09:35.648Z,57.58
2018-09-21T21:12:03.544Z,57.57
2018-09-21T21:14:31.260Z,57.86
2018-09-21T21:16:58.972Z,57.48
2018-09-21T21:19:26.791Z,57.45
2018-09-21T21:21:54.797Z,57.15
2018-09-21T21:24:22.878Z,56.69
2018-09-21T21:26:50.691Z,56.53
2018-09-21T21:29:18.393Z,57.00
2018-09-21T21:31:46.078Z,56.21
2018-09-21T21:34:13.972Z,56.36
2018-09-21T21:36:41.704Z,56.81
2018-09-21T21:39:09.942Z,57.37
2018-09-21T21:41:37.834Z,57.58
2018-09-21T21:44:05.670Z,58.12
2018-09-21T21:46:33.423Z,58.17
2018-09-21T21:49:02.304Z,58.15
2018-09-21T21:51:30.115Z,57.80
2018-09-21T21:53:57.856Z,57.68
2018-09-21T21:56:25.600Z,57.52
2018-09-21T21:58:53.342Z,56.61
2018-09-21T22:01:26.560Z,57.07
2018-09-21T22:03:54.584Z,56.99
2018-09-21T22:06:22.355Z,57.52
2018-09-21T22:08:50.110Z,56.76
2018-09-21T22:11:23.549Z,57.18
2018-09-21T22:13:56.692Z,56.87
2018-09-21T22:16:24.495Z,56.37
2018-09-21T22:18:52.219Z,56.45
2018-09-21T22:21:19.973Z,56.06
2018-09-21T22:23:47.684Z,56.06
2018-09-21T22:26:15.520Z,55.27
2018-09-21T22:28:43.258Z,55.19
2018-09-21T22:31:11.016Z,54.27
2018-09-21T22:33:38.851Z,54.14
2018-09-21T22:36:06.931Z,53.48
2018-09-21T22:38:34.689Z,53.26
2018-09-21T22:41:02.464Z,53.34
2018-09-21T22:43:30.282Z,53.98
2018-09-21T22:45:58.030Z,53.93
2018-09-21T22:48:25.871Z,53.31
2018-09-21T22:50:53.856Z,53.62
2018-09-21T22:53:21.603Z,53.45
2018-09-21T22:55:49.437Z,53.60
2018-09-21T22:58:17.252Z,53.58
2018-09-21T23:00:45.005Z,53.46
2018-09-21T23:03:12.958Z,53.56
2018-09-21T23:05:40.637Z,53.65
2018-09-21T23:08:08.472Z,54.10
2018-09-21T23:10:36.247Z,53.81
2018-09-21T23:13:03.973Z,53.88
2018-09-21T23:15:31.736Z,53.83
2018-09-21T23:17:59.574Z,53.93
2018-09-21T23:20:27.257Z,54.11
2018-09-21T23:22:55.126Z,54.30
2018-09-21T23:25:22.964Z,53.80
2018-09-21T23:27:50.676Z,52.87
2018-09-21T23:30:18.425Z,53.72
2018-09-21T23:32:46.349Z,53.16
2018-09-21T23:35:14.198Z,52.94
2018-09-21T23:37:41.961Z,53.07
2018-09-21T23:40:09.781Z,52.11
2018-09-21T23:42:37.474Z,52.80
2018-09-21T23:45:05.594Z,52.41
2018-09-21T23:47:33.550Z,52.67
2018-09-21T23:50:01.319Z,52.96
2018-09-21T23:52:29.027Z,52.13
2018-09-21T23:54:56.799Z,52.48
2018-09-21T23:57:24.520Z,52.43
2018-09-21T23:59:52.284Z,52.14
